Time;durP1;ratioP1;P1;durP2;ratioP2;P2;SDS_P1;SDS_P2;PMS_P1;PMS_P2;Temp;Humidity;BMP_temperature;BMP_pressure;BME280_temperature;BME280_humidity;BME280_pressure;Samples;Min_cycle;Max_cycle;Signal;HPM_P1;HPM_P2
2021/12/23 00:02:04;;;;;;;3.20;2.33;;;17.20;32.70;;;;;;5012525;28;20466;-70
2021/12/23 00:04:29;;;;;;;3.63;2.38;;;17.30;32.70;;;;;;5012308;28;20100;-70
2021/12/23 00:06:55;;;;;;;3.05;2.47;;;17.30;32.70;;;;;;5011603;28;20022;-70
2021/12/23 00:09:24;;;;;;;3.90;2.60;;;17.30;32.70;;;;;;5012823;28;20060;-70
2021/12/23 00:11:49;;;;;;;3.92;2.50;;;17.20;32.70;;;;;;5012356;28;20076;-70
2021/12/23 00:14:15;;;;;;;4.30;2.45;;;17.30;32.80;;;;;;5011268;28;20026;-70
2021/12/23 00:16:44;;;;;;;3.40;2.60;;;17.30;32.70;;;;;;5012355;28;20026;-70
2021/12/23 00:19:36;;;;;;;2.58;2.10;;;17.20;32.60;;;;;;4995723;28;20030;-70
2021/12/23 00:24:48;;;;;;;2.85;2.33;;;17.30;32.70;;;;;;4993116;28;20053;-70
2021/12/23 00:27:14;;;;;;;3.85;2.63;;;17.20;32.70;;;;;;4991485;28;20390;-70
2021/12/23 00:29:40;;;;;;;3.20;2.50;;;17.20;32.80;;;;;;4992756;28;20018;-70
2021/12/23 00:32:08;;;;;;;3.50;2.28;;;17.20;32.70;;;;;;4996436;28;20581;-70
2021/12/23 00:34:35;;;;;;;4.22;2.30;;;17.30;32.80;;;;;;4996442;28;20022;-70
2021/12/23 00:37:02;;;;;;;2.85;2.47;;;17.20;32.70;;;;;;4996321;28;20033;-70
2021/12/23 00:39:29;;;;;;;3.85;2.50;;;17.20;32.70;;;;;;4995294;28;20019;-70
2021/12/23 00:41:56;;;;;;;5.10;2.63;;;17.20;32.70;;;;;;4996255;28;20022;-70
2021/12/23 00:44:22;;;;;;;3.78;2.80;;;17.20;32.70;;;;;;4996354;28;20535;-70
2021/12/23 00:46:47;;;;;;;3.15;2.58;;;17.20;32.70;;;;;;4996183;28;20102;-70
2021/12/23 00:49:13;;;;;;;3.35;2.53;;;17.20;33.70;;;;;;4996128;28;20027;-70
2021/12/23 00:51:38;;;;;;;3.53;2.60;;;17.30;32.70;;;;;;4996060;28;20037;-70
2021/12/23 00:54:04;;;;;;;2.67;2.45;;;17.30;32.70;;;;;;4996174;28;20445;-70
2021/12/23 00:56:35;;;;;;;3.25;2.35;;;17.20;32.70;;;;;;4995978;28;20045;-70
2021/12/23 00:59:02;;;;;;;3.28;2.28;;;17.30;32.70;;;;;;4998218;28;20022;-70
2021/12/23 01:01:28;;;;;;;3.90;2.63;;;17.20;32.80;;;;;;5015408;28;20530;-70
2021/12/23 01:03:53;;;;;;;3.45;2.28;;;17.20;32.70;;;;;;5015176;28;20066;-70
2021/12/23 01:06:19;;;;;;;3.60;2.50;;;17.30;32.70;;;;;;5015358;28;20506;-70
2021/12/23 01:08:45;;;;;;;3.70;2.40;;;17.20;32.70;;;;;;5015709;28;20516;-70
2021/12/23 01:11:11;;;;;;;3.28;2.50;;;17.20;32.70;;;;;;5015212;28;20022;-70
2021/12/23 01:13:38;;;;;;;3.20;2.35;;;17.20;32.70;;;;;;5015313;28;20026;-70
2021/12/23 01:16:14;;;;;;;3.33;2.50;;;17.20;32.80;;;;;;5015234;28;20036;-70
2021/12/23 01:18:51;;;;;;;4.00;2.60;;;17.20;32.80;;;;;;5002590;28;20030;-70
2021/12/23 01:21:17;;;;;;;3.20;2.60;;;17.20;32.70;;;;;;4995846;28;20098;-70
2021/12/23 01:23:49;;;;;;;3.85;2.50;;;17.20;33.70;;;;;;4995882;28;20057;-70
2021/12/23 01:26:20;;;;;;;;;;;17.20;32.80;;;;;;4995964;28;20026;-70
2021/12/23 01:28:48;;;;;;;3.83;2.60;;;17.20;32.70;;;;;;4995536;28;20321;-70
2021/12/23 01:31:14;;;;;;;3.65;2.50;;;17.10;32.90;;;;;;4994127;28;20372;-70
2021/12/23 01:33:40;;;;;;;4.07;2.67;;;17.10;32.90;;;;;;4994075;28;20034;-70
2021/12/23 01:36:05;;;;;;;3.05;2.42;;;17.10;32.90;;;;;;4993953;28;20023;-70
2021/12/23 01:38:31;;;;;;;3.83;2.70;;;17.20;32.90;;;;;;4993858;28;20030;-70
2021/12/23 01:40:57;;;;;;;3.00;2.33;;;17.20;32.90;;;;;;4994703;28;20030;-70
2021/12/23 01:43:22;;;;;;;2.90;2.30;;;17.20;32.90;;;;;;4995079;28;20026;-70
2021/12/23 01:45:49;;;;;;;3.22;2.50;;;17.20;32.90;;;;;;4995207;28;20026;-70
2021/12/23 01:48:17;;;;;;;3.80;2.45;;;17.20;32.90;;;;;;4995006;28;20061;-70
2021/12/23 01:50:43;;;;;;;3.28;2.58;;;17.20;32.90;;;;;;4995098;28;20434;-70
2021/12/23 01:53:09;;;;;;;3.47;2.42;;;17.20;32.90;;;;;;4994965;28;20383;-70
2021/12/23 01:55:35;;;;;;;3.30;2.35;;;17.20;32.80;;;;;;4994932;28;20022;-70
2021/12/23 01:58:03;;;;;;;3.38;2.47;;;17.20;32.90;;;;;;4994843;28;20037;-70
2021/12/23 02:00:33;;;;;;;3.15;2.55;;;17.20;32.80;;;;;;5008786;28;20109;-70
2021/12/23 02:02:59;;;;;;;3.22;2.60;;;17.20;32.80;;;;;;5014269;28;20022;-70
2021/12/23 02:05:25;;;;;;;3.08;2.30;;;17.20;32.90;;;;;;5014072;28;20129;-70
2021/12/23 02:07:51;;;;;;;2.65;2.15;;;17.20;32.90;;;;;;5014255;28;20034;-70
2021/12/23 02:10:18;;;;;;;3.78;2.58;;;17.20;32.90;;;;;;5014186;28;20501;-70
2021/12/23 02:12:45;;;;;;;3.38;2.30;;;17.20;32.90;;;;;;5014113;28;20026;-70
2021/12/23 02:15:13;;;;;;;3.03;2.25;;;17.20;32.90;;;;;;5013169;28;20049;-70
2021/12/23 02:17:39;;;;;;;4.45;2.50;;;17.20;32.90;;;;;;5009669;28;20022;-70
2021/12/23 02:20:07;;;;;;;4.18;2.70;;;17.20;32.80;;;;;;4994396;28;20023;-70
2021/12/23 02:22:33;;;;;;;3.42;2.70;;;17.20;32.80;;;;;;4994336;28;20057;-70
2021/12/23 02:24:58;;;;;;;3.05;2.40;;;17.20;32.80;;;;;;4994420;28;20030;-70
2021/12/23 02:27:24;;;;;;;3.63;2.40;;;17.20;32.90;;;;;;4994378;28;20455;-70
2021/12/23 02:29:49;;;;;;;3.30;2.72;;;17.20;32.90;;;;;;4994258;28;20023;-70
2021/12/23 02:32:15;;;;;;;3.53;2.38;;;17.20;32.90;;;;;;4994270;28;20026;-70
2021/12/23 02:34:40;;;;;;;3.47;2.35;;;17.20;32.90;;;;;;4993036;28;20042;-70
2021/12/23 02:37:07;;;;;;;3.33;2.60;;;17.20;33.00;;;;;;4994113;28;20037;-70
2021/12/23 02:39:33;;;;;;;2.85;2.47;;;17.20;32.90;;;;;;4992726;28;20027;-70
2021/12/23 02:41:59;;;;;;;3.38;2.47;;;17.20;32.90;;;;;;4994116;28;20084;-70
2021/12/23 02:44:24;;;;;;;2.83;2.42;;;17.20;32.90;;;;;;4994043;28;20033;-70
2021/12/23 02:46:50;;;;;;;3.03;2.30;;;17.20;32.90;;;;;;4993914;28;20019;-70
2021/12/23 02:49:16;;;;;;;3.95;2.75;;;17.20;33.00;;;;;;4993879;28;20395;-70
2021/12/23 02:51:42;;;;;;;3.30;2.53;;;17.20;33.80;;;;;;4992703;28;20037;-70
2021/12/23 02:54:07;;;;;;;3.42;2.70;;;17.20;33.00;;;;;;4993055;28;20038;-70
2021/12/23 02:56:33;;;;;;;3.25;2.38;;;17.20;32.90;;;;;;4993880;28;20026;-70
2021/12/23 02:58:59;;;;;;;3.50;2.50;;;17.20;32.90;;;;;;4995554;28;20416;-70
2021/12/23 03:01:25;;;;;;;3.40;2.40;;;17.20;33.00;;;;;;5013338;28;20030;-70
2021/12/23 03:03:52;;;;;;;4.57;2.60;;;17.20;32.90;;;;;;5012939;28;20522;-70
2021/12/23 03:06:19;;;;;;;3.50;2.45;;;17.20;33.00;;;;;;5013285;28;20382;-70
2021/12/23 03:08:49;;;;;;;3.95;2.72;;;17.20;32.90;;;;;;5013153;28;20109;-70
2021/12/23 03:11:20;;;;;;;4.00;2.50;;;17.20;32.90;;;;;;5011815;28;20030;-70
2021/12/23 03:13:47;;;;;;;3.42;2.40;;;17.20;32.90;;;;;;5013113;28;20446;-70
2021/12/23 03:16:14;;;;;;;3.72;2.90;;;17.20;33.00;;;;;;5013140;28;20061;-70
2021/12/23 03:18:41;;;;;;;3.28;2.63;;;17.20;33.00;;;;;;5000198;28;20031;-70
2021/12/23 03:21:06;;;;;;;4.00;2.67;;;17.20;33.00;;;;;;4993427;28;20031;-70
2021/12/23 03:23:32;;;;;;;4.38;2.75;;;17.20;33.00;;;;;;4993442;28;20022;-70
2021/12/23 03:25:58;;;;;;;3.22;2.50;;;17.20;33.00;;;;;;4993375;28;20558;-71
2021/12/23 03:28:24;;;;;;;3.40;2.35;;;17.20;33.00;;;;;;4993255;28;20054;-71
2021/12/23 03:30:49;;;;;;;2.88;2.47;;;17.20;32.90;;;;;;4993241;28;20137;-71
2021/12/23 03:33:15;;;;;;;4.28;2.50;;;17.20;33.00;;;;;;4993311;28;20368;-70
2021/12/23 03:35:41;;;;;;;3.67;2.58;;;17.20;33.00;;;;;;4993328;28;20045;-70
2021/12/23 03:38:08;;;;;;;3.55;2.40;;;17.20;33.00;;;;;;4993261;28;20463;-70
2021/12/23 03:40:34;;;;;;;3.40;2.25;;;17.20;33.00;;;;;;4993029;28;20504;-71
2021/12/23 03:43:00;;;;;;;3.17;2.33;;;17.20;33.00;;;;;;4993223;28;20681;-71
2021/12/23 03:45:25;;;;;;;3.35;2.53;;;17.20;33.00;;;;;;4993031;28;20029;-71
2021/12/23 03:47:51;;;;;;;3.47;2.70;;;17.20;33.00;;;;;;4993388;28;20034;-71
2021/12/23 03:50:21;;;;;;;3.90;2.55;;;17.20;33.00;;;;;;4992993;28;20026;-71
2021/12/23 03:52:47;;;;;;;3.92;2.40;;;17.10;32.90;;;;;;4993132;28;20068;-70
2021/12/23 03:55:15;;;;;;;2.90;2.35;;;17.20;33.00;;;;;;4993013;28;20049;-70
2021/12/23 03:57:41;;;;;;;3.58;2.40;;;17.10;32.90;;;;;;4993081;28;20475;-70
2021/12/23 04:00:11;;;;;;;3.58;2.55;;;17.10;32.90;;;;;;5003794;28;20055;-70
2021/12/23 04:02:36;;;;;;;3.75;2.65;;;17.10;32.90;;;;;;5012611;28;20084;-70
2021/12/23 04:05:03;;;;;;;3.33;2.67;;;17.10;32.90;;;;;;5014380;28;20038;-70
2021/12/23 04:07:29;;;;;;;3.50;2.58;;;17.10;32.90;;;;;;5016583;28;20037;-71
2021/12/23 04:09:54;;;;;;;3.55;2.55;;;17.10;32.90;;;;;;5016452;28;20033;-71
2021/12/23 04:12:21;;;;;;;3.17;2.53;;;17.10;32.90;;;;;;5016450;28;20022;-71
2021/12/23 04:14:47;;;;;;;3.38;2.40;;;17.10;32.90;;;;;;5016470;28;20108;-71
2021/12/23 04:17:13;;;;;;;3.03;2.30;;;17.10;32.90;;;;;;5015399;28;20112;-71
2021/12/23 04:19:38;;;;;;;4.90;2.67;;;17.10;32.90;;;;;;4995379;28;20497;-70
2021/12/23 04:22:04;;;;;;;3.70;2.70;;;17.10;32.90;;;;;;4995486;28;20019;-71
2021/12/23 04:24:29;;;;;;;2.83;2.38;;;17.10;32.90;;;;;;4996616;28;20060;-71
2021/12/23 04:26:55;;;;;;;3.65;2.42;;;17.10;33.00;;;;;;4996578;28;20044;-71
2021/12/23 04:29:21;;;;;;;3.85;2.47;;;17.10;33.90;;;;;;4996521;28;20032;-71
2021/12/23 04:31:46;;;;;;;4.93;2.90;;;17.10;32.90;;;;;;4996560;28;20109;-71
2021/12/23 04:34:12;;;;;;;3.38;2.70;;;17.10;32.90;;;;;;4996461;28;20108;-71
2021/12/23 04:36:37;;;;;;;3.50;2.58;;;17.10;33.00;;;;;;4996401;28;20034;-71
2021/12/23 04:39:04;;;;;;;3.25;2.60;;;17.10;32.90;;;;;;4996287;28;20066;-71
2021/12/23 04:41:31;;;;;;;4.00;2.60;;;17.10;33.90;;;;;;4996330;28;20534;-71
2021/12/23 04:43:57;;;;;;;3.60;2.40;;;17.10;32.90;;;;;;4996404;28;20098;-70
2021/12/23 04:46:24;;;;;;;3.50;2.35;;;17.10;32.90;;;;;;4996164;28;20022;-70
2021/12/23 04:48:50;;;;;;;4.32;2.40;;;17.10;32.90;;;;;;4996225;28;20105;-70
2021/12/23 04:51:17;;;;;;;4.00;2.60;;;17.10;32.90;;;;;;4996035;28;20398;-70
2021/12/23 04:53:44;;;;;;;3.55;2.50;;;17.10;33.00;;;;;;4994905;28;20099;-70
2021/12/23 04:56:10;;;;;;;3.95;2.67;;;17.10;32.90;;;;;;4995978;28;20031;-70
2021/12/23 04:58:36;;;;;;;3.90;2.45;;;17.10;32.90;;;;;;4995975;28;20502;-70
2021/12/23 05:01:03;;;;;;;4.10;2.75;;;17.10;32.90;;;;;;5013271;28;20018;-70
2021/12/23 05:03:29;;;;;;;4.00;2.70;;;17.10;32.90;;;;;;5015249;28;20029;-71
2021/12/23 05:05:54;;;;;;;3.30;2.35;;;17.10;32.90;;;;;;5015435;28;20017;-71
2021/12/23 05:08:20;;;;;;;3.08;2.50;;;17.10;32.90;;;;;;5015438;28;20080;-70
2021/12/23 05:10:46;;;;;;;3.47;2.60;;;17.00;32.90;;;;;;5015326;28;20421;-71
2021/12/23 05:13:12;;;;;;;3.50;2.47;;;17.10;32.90;;;;;;5015280;28;20145;-71
2021/12/23 05:15:39;;;;;;;4.18;2.78;;;17.10;33.90;;;;;;5014349;28;20026;-71
2021/12/23 05:18:05;;;;;;;3.75;2.67;;;17.10;33.00;;;;;;5007248;28;20501;-71
2021/12/23 05:20:31;;;;;;;3.95;2.75;;;17.10;32.90;;;;;;4994253;28;20019;-70
2021/12/23 05:22:57;;;;;;;3.58;2.40;;;17.10;32.90;;;;;;4995662;28;20026;-70
2021/12/23 05:25:23;;;;;;;4.40;2.78;;;17.00;32.80;;;;;;4995387;28;20026;-70
2021/12/23 05:27:52;;;;;;;3.30;2.58;;;17.10;32.90;;;;;;4994281;28;20050;-70
2021/12/23 05:30:18;;;;;;;3.85;2.63;;;17.10;32.90;;;;;;4995302;28;20026;-71
2021/12/23 05:32:44;;;;;;;3.50;2.40;;;17.10;32.90;;;;;;4994407;28;20026;-71
2021/12/23 05:35:12;;;;;;;4.03;3.00;;;17.10;32.90;;;;;;4995059;28;20030;-71
2021/12/23 05:37:39;;;;;;;3.38;2.70;;;17.00;32.90;;;;;;4995310;28;20113;-71
2021/12/23 05:40:06;;;;;;;3.15;2.83;;;17.10;32.90;;;;;;4995070;28;20080;-71
2021/12/23 05:42:32;;;;;;;2.88;2.55;;;17.10;32.90;;;;;;4995254;28;20022;-71
2021/12/23 05:44:57;;;;;;;4.15;2.60;;;17.10;33.00;;;;;;4993831;28;20392;-71
2021/12/23 05:47:23;;;;;;;3.97;2.63;;;17.10;32.90;;;;;;4995125;28;20030;-71
2021/12/23 05:49:48;;;;;;;3.55;2.65;;;17.10;32.90;;;;;;4995165;28;20475;-71
2021/12/23 05:52:14;;;;;;;3.85;2.88;;;17.10;32.90;;;;;;4993589;28;20482;-71
2021/12/23 05:54:40;;;;;;;3.85;2.88;;;17.20;32.90;;;;;;4993869;28;20030;-70
2021/12/23 05:57:05;;;;;;;4.82;2.72;;;17.20;32.90;;;;;;4994851;28;20399;-71
2021/12/23 05:59:32;;;;;;;4.30;2.88;;;17.20;32.80;;;;;;5001087;28;20054;-71
2021/12/23 06:01:59;;;;;;;3.92;2.70;;;17.30;32.90;;;;;;5014271;28;20018;-71
2021/12/23 06:04:25;;;;;;;3.90;2.53;;;17.30;32.80;;;;;;5012812;28;20769;-71
2021/12/23 06:06:51;;;;;;;3.53;2.55;;;17.50;32.90;;;;;;5014284;28;20071;-71
2021/12/23 06:09:17;;;;;;;4.28;2.88;;;17.50;32.70;;;;;;5013090;28;20495;-71
2021/12/23 06:11:42;;;;;;;3.38;2.60;;;17.50;32.80;;;;;;5014420;28;20022;-70
2021/12/23 06:14:08;;;;;;;4.82;2.78;;;17.60;32.70;;;;;;5013002;28;20092;-70
2021/12/23 06:16:34;;;;;;;3.33;2.80;;;17.70;32.60;;;;;;5014099;28;20045;-70
2021/12/23 06:18:59;;;;;;;3.53;2.70;;;17.80;32.70;;;;;;4997513;28;20484;-71
2021/12/23 06:21:28;;;;;;;4.82;3.08;;;17.80;32.60;;;;;;4993140;28;20031;-71
2021/12/23 06:23:54;;;;;;;3.67;2.72;;;17.90;32.60;;;;;;4993522;28;20113;-71
2021/12/23 06:26:20;;;;;;;2.95;2.17;;;17.90;32.50;;;;;;4994327;28;20058;-71
2021/12/23 06:28:45;;;;;;;3.13;2.70;;;18.00;32.50;;;;;;4994320;28;20022;-71
2021/12/23 06:31:11;;;;;;;3.53;2.92;;;18.00;32.50;;;;;;4994174;28;20018;-71
2021/12/23 06:33:37;;;;;;;3.72;2.70;;;18.10;32.40;;;;;;4994324;28;20022;-71
2021/12/23 06:36:03;;;;;;;3.20;2.60;;;18.10;32.20;;;;;;4994078;28;20434;-71
2021/12/23 06:38:28;;;;;;;3.55;2.42;;;18.20;32.30;;;;;;4994236;28;20434;-71
2021/12/23 06:40:54;;;;;;;4.60;2.70;;;18.20;32.30;;;;;;4993954;28;20030;-71
2021/12/23 06:43:19;;;;;;;3.10;2.45;;;18.30;32.30;;;;;;4994198;28;20443;-71
2021/12/23 06:45:45;;;;;;;3.65;2.42;;;18.30;32.40;;;;;;4994008;28;20352;-71
2021/12/23 06:48:10;;;;;;;3.63;2.60;;;18.30;32.30;;;;;;4993009;28;20030;-71
2021/12/23 06:50:36;;;;;;;3.03;2.45;;;18.40;32.30;;;;;;4992590;28;20031;-71
2021/12/23 06:53:01;;;;;;;3.42;2.60;;;18.40;32.20;;;;;;4993871;28;20093;-71
2021/12/23 06:55:27;;;;;;;3.65;2.65;;;18.40;33.20;;;;;;4993873;28;20026;-71
2021/12/23 06:57:56;;;;;;;3.03;2.40;;;18.40;32.20;;;;;;4993786;28;20022;-71
2021/12/23 07:00:24;;;;;;;3.78;2.70;;;18.50;32.20;;;;;;5006722;28;20160;-71
2021/12/23 07:02:49;;;;;;;3.28;2.65;;;18.50;32.10;;;;;;5013305;28;20494;-71
2021/12/23 07:05:15;;;;;;;4.10;2.70;;;18.50;32.10;;;;;;5012083;28;20052;-71
2021/12/23 07:07:56;;;;;;;3.70;2.65;;;18.60;32.10;;;;;;5012360;28;20029;-71
2021/12/23 07:10:27;;;;;;;3.55;2.75;;;18.60;32.10;;;;;;5011969;28;20029;-71
2021/12/23 07:12:55;;;;;;;3.28;2.53;;;18.60;32.10;;;;;;5011779;28;20021;-71
2021/12/23 07:15:20;;;;;;;3.47;2.70;;;18.60;32.10;;;;;;5013102;28;20029;-71
2021/12/23 07:17:46;;;;;;;3.90;2.72;;;18.60;32.00;;;;;;5007657;28;20026;-71
2021/12/23 07:20:12;;;;;;;3.58;2.60;;;18.60;32.00;;;;;;5000009;28;20109;-71
2021/12/23 07:22:37;;;;;;;3.25;2.53;;;18.70;32.10;;;;;;5012831;28;20076;-71
2021/12/23 07:25:04;;;;;;;2.78;2.22;;;18.70;32.00;;;;;;5012329;28;20060;-71
2021/12/23 07:27:30;;;;;;;3.38;2.53;;;18.70;32.00;;;;;;5012149;28;20114;-71
2021/12/23 07:29:55;;;;;;;3.72;2.60;;;18.80;32.00;;;;;;5011673;28;20049;-71
2021/12/23 07:32:21;;;;;;;2.75;2.45;;;18.80;32.10;;;;;;5012929;28;20030;-71
2021/12/23 07:34:47;;;;;;;4.70;2.75;;;18.80;32.10;;;;;;5012346;28;20026;-71
2021/12/23 07:37:12;;;;;;;3.90;2.90;;;18.80;32.00;;;;;;5012797;28;20026;-71
2021/12/23 07:39:39;;;;;;;4.15;2.72;;;18.80;32.10;;;;;;5010930;28;20026;-71
2021/12/23 07:42:14;;;;;;;3.70;2.45;;;18.80;32.00;;;;;;5012670;28;20014;-71
2021/12/23 07:44:40;;;;;;;3.65;2.70;;;18.80;32.00;;;;;;5012647;28;20049;-71
2021/12/23 07:47:06;;;;;;;3.40;2.53;;;18.80;32.00;;;;;;5012501;28;20054;-71
2021/12/23 07:49:32;;;;;;;3.67;2.60;;;18.90;32.10;;;;;;5012258;28;20026;-71
2021/12/23 07:51:57;;;;;;;3.70;2.60;;;18.80;32.00;;;;;;5012600;28;20514;-71
2021/12/23 07:54:23;;;;;;;3.72;2.60;;;18.80;32.00;;;;;;5012600;28;20026;-71
2021/12/23 07:56:48;;;;;;;3.50;2.80;;;18.90;32.10;;;;;;5011953;28;20041;-71
2021/12/23 07:59:14;;;;;;;3.22;2.50;;;18.90;32.10;;;;;;5012024;28;20018;-71
2021/12/23 08:01:40;;;;;;;3.28;2.50;;;18.90;32.00;;;;;;5011362;28;20064;-71
2021/12/23 08:04:06;;;;;;;4.13;2.70;;;18.90;32.00;;;;;;5012031;28;20383;-71
2021/12/23 08:06:31;;;;;;;2.83;2.40;;;18.90;32.10;;;;;;4998123;28;20041;-71
2021/12/23 08:08:57;;;;;;;2.95;2.30;;;18.90;32.00;;;;;;4993285;28;20081;-69
2021/12/23 08:11:23;;;;;;;4.15;2.80;;;18.90;31.90;;;;;;4995180;28;20068;-71
2021/12/23 08:13:48;;;;;;;3.53;2.75;;;18.90;31.90;;;;;;5011994;28;20021;-71
2021/12/23 08:16:14;;;;;;;3.63;2.70;;;18.90;31.90;;;;;;5012403;28;20033;-70
2021/12/23 08:18:40;;;;;;;4.00;2.70;;;18.90;31.90;;;;;;5012322;28;20135;-71
2021/12/23 08:21:05;;;;;;;3.55;2.70;;;18.90;31.90;;;;;;5012510;28;20026;-71
2021/12/23 08:23:31;;;;;;;2.70;2.22;;;18.90;31.90;;;;;;5012453;28;20018;-71
2021/12/23 08:26:02;;;;;;;3.03;2.65;;;18.90;31.90;;;;;;5012238;28;20022;-71
2021/12/23 08:28:27;;;;;;;3.28;2.97;;;18.90;31.90;;;;;;5012473;28;20030;-71
2021/12/23 08:30:53;;;;;;;4.03;2.80;;;18.90;31.80;;;;;;5011582;28;20387;-71
2021/12/23 08:33:19;;;;;;;3.67;2.70;;;18.90;31.90;;;;;;5012232;28;20038;-70
2021/12/23 08:35:44;;;;;;;3.22;2.67;;;19.00;31.90;;;;;;5010565;28;20022;-71
2021/12/23 08:38:10;;;;;;;2.92;2.55;;;19.00;31.90;;;;;;5013255;28;20080;-71
2021/12/23 08:40:35;;;;;;;3.33;2.55;;;19.00;31.90;;;;;;5010672;28;20026;-71
2021/12/23 08:43:02;;;;;;;3.67;2.75;;;19.00;31.90;;;;;;5009467;28;20382;-71
2021/12/23 08:45:29;;;;;;;3.28;2.58;;;19.00;31.90;;;;;;5011961;28;20117;-71
2021/12/23 08:47:56;;;;;;;3.35;2.60;;;19.00;31.90;;;;;;5010395;28;20018;-71
2021/12/23 08:50:24;;;;;;;3.08;2.50;;;19.00;31.80;;;;;;5011703;28;20544;-71
2021/12/23 08:52:50;;;;;;;3.08;2.63;;;19.00;31.70;;;;;;5014980;28;20474;-70
2021/12/23 08:55:17;;;;;;;3.22;2.60;;;19.00;31.70;;;;;;5015186;28;20036;-70
2021/12/23 08:57:43;;;;;;;3.90;2.72;;;19.00;31.70;;;;;;5015253;28;20032;-71
2021/12/23 09:00:12;;;;;;;2.83;2.50;;;19.00;31.60;;;;;;5015376;28;20366;-71
2021/12/23 09:02:38;;;;;;;4.05;2.95;;;19.00;31.60;;;;;;5015387;28;20088;-71
2021/12/23 09:05:05;;;;;;;3.30;2.65;;;19.00;31.70;;;;;;5015061;28;20506;-71
2021/12/23 09:07:31;;;;;;;3.55;2.60;;;19.00;31.70;;;;;;5015409;28;20030;-71
2021/12/23 09:09:57;;;;;;;3.50;2.50;;;19.00;31.70;;;;;;5013611;28;20092;-71
2021/12/23 09:12:22;;;;;;;3.50;2.50;;;19.00;31.70;;;;;;5013357;28;20062;-71
2021/12/23 09:14:48;;;;;;;3.38;2.70;;;19.00;31.70;;;;;;5014470;28;20061;-71
2021/12/23 09:17:15;;;;;;;3.60;2.58;;;18.90;31.70;;;;;;5013337;28;20034;-71
2021/12/23 09:19:41;;;;;;;3.97;2.72;;;18.90;31.60;;;;;;5010187;28;20037;-71
2021/12/23 09:22:08;;;;;;;3.20;2.70;;;18.90;31.70;;;;;;5014962;28;20037;-71
2021/12/23 09:24:35;;;;;;;4.28;2.72;;;18.90;31.80;;;;;;5014788;28;20072;-71
2021/12/23 09:27:31;;;;;;;3.72;2.80;;;18.80;31.70;;;;;;5015098;28;20014;-70
2021/12/23 09:35:00;;;;;;;4.13;2.80;;;18.80;31.80;;;;;;5015142;28;20041;-71
2021/12/23 09:37:27;;;;;;;3.65;2.72;;;18.70;31.80;;;;;;5014810;28;20033;-71
2021/12/23 09:39:55;;;;;;;3.70;2.78;;;18.70;31.80;;;;;;5014741;28;20026;-71
2021/12/23 09:42:32;;;;;;;3.45;2.63;;;18.70;32.80;;;;;;5015133;28;20026;-71
2021/12/23 09:45:06;;;;;;;3.90;2.72;;;18.70;31.80;;;;;;5011016;28;20052;-71
2021/12/23 09:47:34;;;;;;;4.35;2.78;;;18.60;31.80;;;;;;4997441;28;20021;-71
2021/12/23 09:50:04;;;;;;;3.70;2.83;;;18.60;31.90;;;;;;5014389;28;20038;-71
2021/12/23 09:52:32;;;;;;;3.40;2.65;;;18.50;31.80;;;;;;5003644;28;20525;-70
2021/12/23 09:55:01;;;;;;;3.05;2.60;;;18.60;31.90;;;;;;5014222;28;20026;-70
2021/12/23 09:57:26;;;;;;;3.80;2.92;;;18.50;31.90;;;;;;5012610;28;20026;-71
2021/12/23 09:59:53;;;;;;;4.07;2.75;;;18.50;31.90;;;;;;5014128;28;20351;-71
2021/12/23 10:02:19;;;;;;;4.53;2.85;;;18.40;31.90;;;;;;5014018;28;20474;-71
2021/12/23 10:04:45;;;;;;;4.43;2.80;;;18.40;31.90;;;;;;5009458;28;20077;-71
2021/12/23 10:07:10;;;;;;;3.85;3.00;;;18.40;32.00;;;;;;5012544;28;20026;-71
2021/12/23 10:09:51;;;;;;;4.47;3.05;;;18.40;31.90;;;;;;5013770;28;20121;-71
2021/12/23 10:30:07;;;;;;;4.22;3.20;;;18.10;32.10;;;;;;5013842;28;20552;-70
2021/12/23 10:37:21;;;;;;;4.85;3.30;;;18.00;32.20;;;;;;4994523;28;20035;-70
2021/12/23 10:40:05;;;;;;;4.63;3.00;;;18.00;32.20;;;;;;5007175;28;20030;-70
2021/12/23 10:42:32;;;;;;;5.07;3.15;;;18.00;32.20;;;;;;5013650;28;20057;-71
2021/12/23 10:45:02;;;;;;;4.63;3.10;;;18.00;32.20;;;;;;5013567;28;20077;-70
2021/12/23 10:48:03;;;;;;;4.18;3.10;;;18.00;32.20;;;;;;5011754;28;20030;-71
2021/12/23 10:50:41;;;;;;;5.15;3.10;;;18.00;32.20;;;;;;5013451;28;20022;-71
2021/12/23 10:53:12;;;;;;;4.80;3.17;;;17.90;32.30;;;;;;5013661;28;20034;-71
2021/12/23 10:58:22;;;;;;;5.22;3.17;;;17.90;32.40;;;;;;5013446;28;20041;-71
2021/12/23 11:01:01;;;;;;;6.05;3.30;;;17.90;32.50;;;;;;5013013;28;20030;-71
2021/12/23 11:03:33;;;;;;;4.22;2.83;;;17.90;32.50;;;;;;5014993;28;20127;-71
2021/12/23 11:06:11;;;;;;;3.88;2.95;;;17.80;32.50;;;;;;5018556;28;20033;-71
2021/12/23 11:32:12;;;;;;;6.95;3.28;;;17.70;32.90;;;;;;5012545;28;20033;-71
2021/12/23 11:42:21;;;;;;;11.30;3.38;;;17.60;33.10;;;;;;4961755;28;20466;-71
2021/12/23 11:44:47;;;;;;;9.18;3.47;;;17.50;33.10;;;;;;5001744;28;20489;-71
2021/12/23 11:47:15;;;;;;;12.38;3.65;;;17.50;33.20;;;;;;5010316;28;20058;-71
2021/12/23 11:49:43;;;;;;;8.75;3.47;;;17.50;33.20;;;;;;5012181;28;20034;-71
2021/12/23 11:52:09;;;;;;;10.20;3.88;;;17.60;33.30;;;;;;5012439;28;20026;-71
2021/12/23 11:54:43;;;;;;;11.38;3.45;;;17.50;33.20;;;;;;5012177;28;20041;-71
2021/12/23 11:57:14;;;;;;;11.57;3.53;;;17.50;33.30;;;;;;5012604;28;20030;-71
2021/12/23 11:59:43;;;;;;;10.85;3.40;;;17.50;33.30;;;;;;5012005;28;20113;-71
2021/12/23 12:02:18;;;;;;;6.95;3.33;;;17.50;33.30;;;;;;5011241;28;20076;-70
2021/12/23 12:04:44;;;;;;;11.13;4.10;;;17.50;33.30;;;;;;5010741;28;20453;-71
2021/12/23 12:07:19;;;;;;;11.88;4.28;;;17.50;33.40;;;;;;5010785;28;20022;-71
2021/12/23 12:10:07;;;;;;;15.52;4.50;;;17.50;33.40;;;;;;5008949;28;20079;-71
2021/12/23 12:12:37;;;;;;;16.92;5.03;;;17.50;33.40;;;;;;5007759;28;20030;-71
2021/12/23 12:15:04;;;;;;;13.68;4.88;;;17.40;33.50;;;;;;5010694;28;20018;-70
2021/12/23 12:17:33;;;;;;;13.85;5.18;;;17.40;33.60;;;;;;5011283;28;20071;-70
2021/12/23 12:20:34;;;;;;;18.45;5.28;;;17.40;33.60;;;;;;5012170;28;20091;-71
2021/12/23 12:23:11;;;;;;;20.70;5.90;;;17.40;33.60;;;;;;5012427;28;20057;-71
2021/12/23 12:25:48;;;;;;;21.13;5.72;;;17.40;33.70;;;;;;5013783;28;20030;-71
2021/12/23 12:28:26;;;;;;;26.23;6.57;;;17.40;33.80;;;;;;5016224;28;20411;-71
2021/12/23 12:30:57;;;;;;;16.67;5.75;;;17.40;33.90;;;;;;5015557;28;20065;-71
2021/12/23 12:33:25;;;;;;;16.50;6.13;;;17.40;33.90;;;;;;5016809;28;20025;-70
2021/12/23 12:36:05;;;;;;;18.77;5.97;;;17.40;34.00;;;;;;5016161;28;20029;-70
2021/12/23 12:38:37;;;;;;;18.27;6.28;;;17.40;34.00;;;;;;5014547;28;20061;-70
2021/12/23 12:41:16;;;;;;;19.10;6.87;;;17.40;34.10;;;;;;5017560;28;20026;-70
2021/12/23 12:43:51;;;;;;;20.75;6.07;;;17.30;34.10;;;;;;5017216;28;20273;-70
2021/12/23 12:46:51;;;;;;;14.15;6.07;;;17.30;34.10;;;;;;5016470;28;20018;-70
2021/12/23 12:49:25;;;;;;;16.63;7.22;;;17.40;34.10;;;;;;5016210;28;20046;-70
2021/12/23 12:51:53;;;;;;;21.00;6.15;;;17.30;34.20;;;;;;5015318;28;20026;-70
2021/12/23 12:54:29;;;;;;;16.88;7.45;;;17.30;34.70;;;;;;5016357;28;20021;-70
2021/12/23 12:56:58;;;;;;;14.82;7.07;;;17.30;34.30;;;;;;5015696;28;20026;-70
2021/12/23 12:59:29;;;;;;;18.58;6.85;;;17.30;34.40;;;;;;5015442;28;20028;-71
2021/12/23 13:01:56;;;;;;;16.05;6.95;;;17.30;34.50;;;;;;5013649;28;20085;-71
2021/12/23 13:04:36;;;;;;;17.63;7.40;;;17.30;34.50;;;;;;5019174;28;20042;-71
2021/12/23 13:07:25;;;;;;;18.23;7.03;;;17.30;34.60;;;;;;4997570;28;20072;-71
2021/12/23 13:10:01;;;;;;;16.00;7.05;;;17.30;34.70;;;;;;4996937;28;20058;-71
2021/12/23 13:12:41;;;;;;;20.50;7.15;;;17.30;34.80;;;;;;5003174;28;20026;-70
2021/12/23 13:15:31;;;;;;;18.35;6.68;;;17.30;34.80;;;;;;4994847;28;20026;-70
2021/12/23 13:18:18;;;;;;;16.45;7.15;;;17.20;36.20;;;;;;4999032;28;20437;-70
2021/12/23 13:20:47;;;;;;;15.38;6.47;;;17.20;36.90;;;;;;5015385;28;20022;-70
2021/12/23 13:23:33;;;;;;;16.17;7.00;;;17.20;37.20;;;;;;5015220;28;20022;-70
2021/12/23 13:26:02;;;;;;;19.30;7.15;;;17.20;37.70;;;;;;5014656;28;20022;-70
2021/12/23 13:29:01;;;;;;;17.02;7.03;;;17.30;37.60;;;;;;5014766;28;20506;-70
2021/12/23 13:31:29;;;;;;;18.75;7.57;;;17.20;37.30;;;;;;4993102;28;20041;-70
2021/12/23 13:34:01;;;;;;;15.70;7.00;;;17.20;38.40;;;;;;5015213;28;20044;-70
2021/12/23 13:36:30;;;;;;;18.95;7.65;;;17.20;37.10;;;;;;5013272;28;20481;-70
2021/12/23 13:39:26;;;;;;;21.20;7.07;;;17.20;36.80;;;;;;5012328;28;20025;-70
2021/12/23 13:41:57;;;;;;;20.75;7.32;;;17.20;36.70;;;;;;4990796;28;20045;-70
2021/12/23 13:44:36;;;;;;;19.88;7.00;;;17.20;36.50;;;;;;4995449;28;20033;-71
2021/12/23 13:47:09;;;;;;;17.77;8.23;;;17.10;36.40;;;;;;5003835;28;20022;-70
2021/12/23 13:49:35;;;;;;;17.30;7.88;;;17.10;36.50;;;;;;5014514;28;20049;-70
2021/12/23 13:52:01;;;;;;;15.73;8.32;;;17.10;36.40;;;;;;5013412;28;20077;-71
2021/12/23 13:54:39;;;;;;;18.98;7.70;;;17.10;36.40;;;;;;5014632;28;20026;-70
2021/12/23 13:57:13;;;;;;;15.90;7.57;;;17.10;36.40;;;;;;4995170;28;20538;-70